Language selection

My Weather Profile Weather Topics  | 

Central Brevoort - northern half: Past 24 Hour Conditions

 

Cartwright Airport

04:00 PM ADT 13 May 2021
Disclaimer

This table is a summary of hourly weather conditions for the past 24 hours.
Please note that these observations might not always be representative of weather conditions over their associated marine area.

Date / Time
(ADT)
Wind(knots) Conditions Visibility(km) Pressure(kPa) Air tempC) Relative humidity(%) Dew pointC)
13 May 2021
16:00 NNW 9 gust 19 Rain 15 100.6 3 95 2
15:00 NNW 11 gust 17 Light Rain 16 100.6 2 95 2
14:00 NNW 9 gust 16 Rain 16 100.5 2 96 2
13:00 NNW 12 gust 17 Rain 16 100.5 2 96 1
12:00 NNW 11 gust 21 Light Rain 16 100.5 2 96 2
11:00 NNW 14 gust 24 Precipitation 13 100.4 2 97 2
10:00 NNW 14 gust 21 Precipitation 8 100.4 1 96 1
9:00 NW 13 gust 21 Light Rain 10 100.4 1 96 1
8:00 NNW 14 gust 22 Light Snow 16 100.4 1 96 1
7:00 NNW 14 gust 27 Light Rain 3 100.3 1 97 1
6:00 NNW 16 gust 25 Light Snow 10 100.3 1 97 0
5:00 NNW 14 gust 25 Light Snow 8 100.3 1 96 0
4:00 NNW 14 gust 25 Precipitation 10 100.4 1 97 0
3:00 NW 14 gust 24 Light Snow 5 100.4 1 97 0
2:00 NNW 15 gust 24 Light Snow 3 100.4 0 97 0
1:00 NNW 18 gust 31 Light Snow 4 100.4 1 96 0
0:00 NNW 18 gust 28 Light Snow 4 100.5 1 96 0
12 May 2021
23:00 NNW 18 gust 29 Light Snow 4 100.6 1 96 0
22:00 NNW 17 gust 30 Light Snow 3 100.7 1 96 0
21:00 NNW 17 gust 29 Light Snow 3 100.7 1 96 0
20:00 NNW 18 gust 30 Light Snow 5 100.8 1 95 0
19:00 NNW 17 gust 28 Light Snow 3 100.8 1 96 0
18:00 NNW 21 gust 35 Light Snow 4 100.8 1 94 0
17:00 NNW 24 gust 39 Light Rain 6 100.8 1 94 0
16:00 N 20 gust 32 Light Snow 3 100.8 1 97 0

Zoom-in to make a selection

Map of Atlantic - Labrador marine weather areas Kangiqsualujjuaq Airport Cape Kakkiviak Cape Kiglapait Cartwright Airport CFB Goose Bay Hopedale Mary's Harbour Nain Airport Makkovik Airport Saglek Tukialik Bay
Legend:
buoy Buoy
land station Land Station

Atlantic - Labrador Area

Another Region

What we are doing

Date modified: